Time;durP1;ratioP1;P1;durP2;ratioP2;P2;SDS_P1;SDS_P2;PMS_P1;PMS_P2;Temp;Humidity;BMP_temperature;BMP_pressure;BME280_temperature;BME280_humidity;BME280_pressure;Samples;Min_cycle;Max_cycle;Signal;HPM_P1;HPM_P2
2022/07/12 00:00:58;;;;;;;;;;;;;;;12.92;100.00;100267.66;3055243;19;960;-51
2022/07/12 00:02:03;;;;;;;;;;;;;;;12.94;100.00;100273.72;3055647;19;932;-51
2022/07/12 00:03:05;;;;;;;;;;;;;;;12.93;100.00;100269.31;3055893;19;956;-53
2022/07/12 00:04:09;;;;;;;;;;;;;;;12.95;100.00;100270.06;3055507;19;1027;-52
2022/07/12 00:05:11;;;;;;;;;;;;;;;12.93;100.00;100272.88;3055789;19;897;-51
2022/07/12 00:06:16;;;;;;;;;;;;;;;12.91;100.00;100268.63;3055853;19;869;-51
2022/07/12 00:07:18;;;;;;;;;;;;;;;12.88;100.00;100263.47;3055691;19;1011;-52
2022/07/12 00:08:22;;;;;;;;;;;;;;;12.86;100.00;100276.13;3053799;19;1856;-52
2022/07/12 00:09:24;;;;;;;;;;;;;;;12.82;100.00;100277.31;3055723;19;972;-49
2022/07/12 00:10:28;;;;;;;;;;;;;;;12.81;100.00;100272.91;3055714;19;1646;-51
2022/07/12 00:11:30;;;;;;;;;;;;;;;12.77;100.00;100279.50;3055409;19;1031;-52
2022/07/12 00:12:35;;;;;;;;;;;;;;;12.74;100.00;100283.25;3055578;19;1027;-53
2022/07/12 00:13:38;;;;;;;;;;;;;;;12.70;100.00;100271.03;3055889;19;888;-52
2022/07/12 00:14:43;;;;;;;;;;;;;;;12.68;100.00;100280.19;3055737;19;904;-50
2022/07/12 00:15:44;;;;;;;;;;;;;;;12.68;100.00;100285.53;3055728;19;1698;-50
2022/07/12 00:16:49;;;;;;;;;;;;;;;12.65;100.00;100280.41;3055803;19;932;-51
2022/07/12 00:17:51;;;;;;;;;;;;;;;12.62;100.00;100279.66;3055797;19;1011;-51
2022/07/12 00:18:55;;;;;;;;;;;;;;;12.62;100.00;100293.03;3058579;19;1616;-50
2022/07/12 00:19:57;;;;;;;;;;;;;;;12.61;100.00;100288.63;3058906;19;991;-53
2022/07/12 00:21:02;;;;;;;;;;;;;;;12.59;100.00;100285.22;3058759;19;943;-51
2022/07/12 00:22:03;;;;;;;;;;;;;;;12.58;100.00;100280.81;3058963;19;1188;-51
2022/07/12 00:23:08;;;;;;;;;;;;;;;12.58;100.00;100288.84;3058970;19;901;-51
2022/07/12 00:24:11;;;;;;;;;;;;;;;12.57;100.00;100278.25;3058773;19;920;-52
2022/07/12 00:25:16;;;;;;;;;;;;;;;12.56;100.00;100277.41;3057950;19;976;-53
2022/07/12 00:26:18;;;;;;;;;;;;;;;12.55;100.00;100281.06;3058715;19;991;-52
2022/07/12 00:27:22;;;;;;;;;;;;;;;12.54;100.00;100274.00;3058506;19;911;-51
2022/07/12 00:28:24;;;;;;;;;;;;;;;12.52;100.00;100273.25;3056820;19;1862;-52
2022/07/12 00:29:29;;;;;;;;;;;;;;;12.52;100.00;100280.44;3057702;19;924;-52
2022/07/12 00:30:30;;;;;;;;;;;;;;;12.52;100.00;100275.94;3058709;19;900;-51
2022/07/12 00:31:35;;;;;;;;;;;;;;;12.51;100.00;100278.72;3058503;19;936;-51
2022/07/12 00:32:37;;;;;;;;;;;;;;;12.49;100.00;100270.81;3058555;19;988;-51
2022/07/12 00:33:41;;;;;;;;;;;;;;;12.49;100.00;100270.81;3058569;19;1204;-52
2022/07/12 00:34:43;;;;;;;;;;;;;;;12.49;100.00;100278.81;3058602;19;972;-51
2022/07/12 00:35:47;;;;;;;;;;;;;;;12.49;100.00;100273.47;3058510;19;884;-50
2022/07/12 00:36:49;;;;;;;;;;;;;;;12.48;100.00;100271.75;3058751;19;1011;-52
2022/07/12 00:37:54;;;;;;;;;;;;;;;12.47;100.00;100272.72;3058221;19;908;-51
2022/07/12 00:38:56;;;;;;;;;;;;;;;12.47;100.00;100264.69;3058391;19;841;-51
2022/07/12 00:40:01;;;;;;;;;;;;;;;12.49;100.00;100264.59;3057907;19;984;-51
2022/07/12 00:41:03;;;;;;;;;;;;;;;12.49;100.00;100272.63;3058352;19;916;-50
2022/07/12 00:42:07;;;;;;;;;;;;;;;12.49;100.00;100262.78;3057915;19;1723;-50
2022/07/12 00:43:09;;;;;;;;;;;;;;;12.50;100.00;100259.13;3058669;19;869;-52
2022/07/12 00:44:13;;;;;;;;;;;;;;;12.48;100.00;100261.06;3058010;19;1032;-52
2022/07/12 00:45:15;;;;;;;;;;;;;;;12.49;100.00;100260.09;3058563;19;948;-50
2022/07/12 00:46:20;;;;;;;;;;;;;;;12.49;100.00;100260.09;3058412;19;893;-50
2022/07/12 00:47:25;;;;;;;;;;;;;;;12.49;100.00;100262.78;3058699;19;829;-49
2022/07/12 00:48:29;;;;;;;;;;;;;;;12.49;100.00;100259.25;3057509;19;1891;-51
2022/07/12 00:49:31;;;;;;;;;;;;;;;12.49;100.00;100262.78;3058501;19;956;-51
2022/07/12 00:50:36;;;;;;;;;;;;;;;12.48;100.00;100258.38;3058281;19;1011;-51
2022/07/12 00:51:38;;;;;;;;;;;;;;;12.49;100.00;100260.09;3058557;19;1193;-49
2022/07/12 00:52:42;;;;;;;;;;;;;;;12.50;100.00;100264.47;3058449;19;981;-51
2022/07/12 00:53:44;;;;;;;;;;;;;;;12.47;100.00;100259.34;3058538;19;889;-51
2022/07/12 00:54:49;;;;;;;;;;;;;;;12.50;100.00;100256.44;3058213;19;925;-51
2022/07/12 00:55:54;;;;;;;;;;;;;;;12.52;100.00;100262.56;3058239;19;996;-50
2022/07/12 00:56:59;;;;;;;;;;;;;;;12.53;100.00;100260.72;3057349;19;1015;-51
2022/07/12 00:58:01;;;;;;;;;;;;;;;12.48;100.00;100249.50;3057461;19;936;-50
2022/07/12 00:59:05;;;;;;;;;;;;;;;12.57;100.00;100263.06;3058200;19;1002;-53
2022/07/12 01:00:08;;;;;;;;;;;;;;;12.59;100.00;100258.44;3058403;19;971;-53
2022/07/12 01:01:13;;;;;;;;;;;;;;;12.62;100.00;100250.19;3057983;19;1063;-50
2022/07/12 01:02:14;;;;;;;;;;;;;;;12.65;100.00;100256.31;3057399;19;1073;-53
2022/07/12 01:03:19;;;;;;;;;;;;;;;12.62;100.00;100252.88;3057217;19;1037;-52
2022/07/12 01:04:21;;;;;;;;;;;;;;;12.65;100.00;100256.31;3057540;19;920;-50
2022/07/12 01:05:26;;;;;;;;;;;;;;;12.67;100.00;100255.22;3057952;19;1623;-50
2022/07/12 01:06:28;;;;;;;;;;;;;;;12.62;100.00;100252.88;3058123;19;1339;-50
2022/07/12 01:07:32;;;;;;;;;;;;;;;12.65;100.00;100245.59;3057036;19;957;-51
2022/07/12 01:08:34;;;;;;;;;;;;;;;12.66;100.00;100258.00;3056631;19;1866;-53
2022/07/12 01:09:39;;;;;;;;;;;;;;;12.69;100.00;100252.41;3057905;19;960;-51
2022/07/12 01:10:41;;;;;;;;;;;;;;;12.71;100.00;100251.34;3057944;19;984;-50
2022/07/12 01:11:45;;;;;;;;;;;;;;;12.71;100.00;100258.50;3058331;19;947;-51
2022/07/12 01:12:48;;;;;;;;;;;;;;;12.72;100.00;100252.19;3057250;19;878;-53
2022/07/12 01:13:57;;;;;;;;;;;;;;;12.69;100.00;100253.25;3057487;19;943;-51
2022/07/12 01:14:59;;;;;;;;;;;;;;;12.71;100.00;100250.47;3057347;19;925;-51
2022/07/12 01:16:03;;;;;;;;;;;;;;;12.64;100.00;100234.03;3057193;19;933;-49
2022/07/12 01:17:06;;;;;;;;;;;;;;;12.73;100.00;100251.22;3057187;19;924;-50
2022/07/12 01:18:10;;;;;;;;;;;;;;;12.76;100.00;100253.69;3058207;19;1301;-53
2022/07/12 01:19:17;;;;;;;;;;;;;;;12.75;100.00;100249.28;3057003;19;909;-53
2022/07/12 01:20:21;;;;;;;;;;;;;;;12.74;100.00;100245.75;3057327;19;865;-51
2022/07/12 01:21:23;;;;;;;;;;;;;;;12.81;100.00;100240.78;3057087;19;916;-51
2022/07/12 01:22:29;;;;;;;;;;;;;;;12.84;100.00;100245.91;3057820;19;1035;-52
2022/07/12 01:23:31;;;;;;;;;;;;;;;12.88;100.00;100247.41;3057541;19;1323;-52
2022/07/12 01:24:35;;;;;;;;;;;;;;;12.95;100.00;100238.78;3058110;19;1260;-51
2022/07/12 01:25:37;;;;;;;;;;;;;;;12.99;100.00;100234.06;3057680;19;869;-52
2022/07/12 01:26:41;;;;;;;;;;;;;;;13.04;100.00;100231.03;3057928;19;1023;-49
2022/07/12 01:27:43;;;;;;;;;;;;;;;13.09;100.00;100245.78;3057623;19;1028;-53
2022/07/12 01:28:48;;;;;;;;;;;;;;;13.10;100.00;100247.50;3056996;19;1846;-52
2022/07/12 01:29:50;;;;;;;;;;;;;;;13.15;100.00;100234.66;3055227;19;1236;-53
2022/07/12 01:30:54;;;;;;;;;;;;;;;13.16;100.00;100246.22;3057652;19;905;-52
2022/07/12 01:32:24;;;;;;;;;;;;;;;13.16;100.00;100235.50;3056610;19;957;-50
2022/07/12 01:33:21;;;;;;;;;;;;;;;13.22;100.00;100230.50;3057388;19;2347;-49
2022/07/12 01:34:23;;;;;;;;;;;;;;;13.27;100.00;100233.72;3057622;19;884;-51
2022/07/12 01:35:27;;;;;;;;;;;;;;;13.28;100.00;100231.88;3056960;19;995;-52
2022/07/12 01:36:29;;;;;;;;;;;;;;;13.37;100.00;100227.63;3056812;19;925;-51
2022/07/12 01:37:37;;;;;;;;;;;;;;;13.41;100.00;100229.09;3056962;19;892;-51
2022/07/12 01:38:39;;;;;;;;;;;;;;;13.45;100.00;100230.56;3057611;19;972;-52
2022/07/12 01:39:45;;;;;;;;;;;;;;;13.48;100.00;100230.34;3057769;19;947;-51
2022/07/12 01:40:49;;;;;;;;;;;;;;;13.45;100.00;100228.75;3057555;19;1063;-52
2022/07/12 01:41:51;;;;;;;;;;;;;;;13.50;100.00;100225.72;3057710;19;1015;-51
2022/07/12 01:42:56;;;;;;;;;;;;;;;13.58;100.00;100223.28;3056693;19;991;-52
2022/07/12 01:43:58;;;;;;;;;;;;;;;13.57;100.00;100224.25;3056917;19;861;-51
2022/07/12 01:45:03;;;;;;;;;;;;;;;13.62;100.00;100227.44;3056744;19;939;-51
2022/07/12 01:46:04;;;;;;;;;;;;;;;13.63;100.00;100227.31;3057703;19;1111;-53
2022/07/12 01:47:09;;;;;;;;;;;;;;;13.66;100.00;100223.50;3057659;19;892;-51
2022/07/12 01:48:11;;;;;;;;;;;;;;;13.69;100.00;100228.66;3057943;19;1360;-51
2022/07/12 01:49:15;;;;;;;;;;;;;;;13.64;100.00;100228.19;3057243;19;1858;-52
2022/07/12 01:50:17;;;;;;;;;;;;;;;13.65;100.00;100237.91;3057422;19;919;-51
2022/07/12 01:51:21;;;;;;;;;;;;;;;13.64;100.00;100225.50;3057652;19;879;-51
2022/07/12 01:52:23;;;;;;;;;;;;;;;13.61;100.00;100231.09;3057011;19;865;-51
2022/07/12 01:53:28;;;;;;;;;;;;;;;13.54;100.00;100229.84;3057796;19;850;-50
2022/07/12 01:54:29;;;;;;;;;;;;;;;13.48;100.00;100231.19;3056442;19;929;-50
2022/07/12 01:55:34;;;;;;;;;;;;;;;13.36;100.00;100220.56;3056716;19;1051;-50
2022/07/12 01:56:36;;;;;;;;;;;;;;;13.44;100.00;100234.22;3056649;19;1119;-51
2022/07/12 01:57:41;;;;;;;;;;;;;;;13.47;100.00;100239.34;3057585;19;975;-53
2022/07/12 01:58:43;;;;;;;;;;;;;;;13.48;100.00;100225.81;3056646;19;1016;-51
2022/07/12 01:59:47;;;;;;;;;;;;;;;13.53;100.00;100228.13;3056613;19;1067;-49
2022/07/12 02:00:52;;;;;;;;;;;;;;;13.56;100.00;100233.25;3056732;19;937;-50
2022/07/12 02:01:56;;;;;;;;;;;;;;;13.53;100.00;100238.84;3056832;19;960;-52
2022/07/12 02:03:01;;;;;;;;;;;;;;;13.54;100.00;100237.88;3056430;19;981;-52
2022/07/12 02:04:03;;;;;;;;;;;;;;;13.56;100.00;100246.66;3057562;19;959;-51
2022/07/12 02:05:08;;;;;;;;;;;;;;;13.55;100.00;100245.81;3057284;19;912;-49
2022/07/12 02:06:10;;;;;;;;;;;;;;;13.53;100.00;100241.53;3056572;19;1273;-52
2022/07/12 02:07:15;;;;;;;;;;;;;;;13.52;100.00;100239.84;3056247;19;920;-52
2022/07/12 02:08:16;;;;;;;;;;;;;;;13.47;100.00;100239.34;3057386;19;1352;-50
2022/07/12 02:09:21;;;;;;;;;;;;;;;13.44;100.00;100244.94;3056956;19;1858;-52
2022/07/12 02:10:25;;;;;;;;;;;;;;;13.41;100.00;100240.66;3057618;19;940;-52
2022/07/12 02:11:27;;;;;;;;;;;;;;;13.31;100.00;100245.88;3057364;19;855;-52
2022/07/12 02:12:32;;;;;;;;;;;;;;;13.25;100.00;100240.16;3057536;19;959;-52
2022/07/12 02:13:33;;;;;;;;;;;;;;;13.23;100.00;100242.94;3056358;19;944;-51
2022/07/12 02:14:38;;;;;;;;;;;;;;;13.20;100.00;100243.16;3056610;19;1659;-52
2022/07/12 02:15:40;;;;;;;;;;;;;;;13.21;100.00;100234.16;3057240;19;2256;-51
2022/07/12 02:16:44;;;;;;;;;;;;;;;13.21;100.00;100236.84;3057243;19;988;-50
2022/07/12 02:17:47;;;;;;;;;;;;;;;13.17;100.00;100227.31;3057016;19;1047;-50
2022/07/12 02:18:52;;;;;;;;;;;;;;;13.16;100.00;100225.59;3057535;19;892;-50
2022/07/12 02:19:53;;;;;;;;;;;;;;;13.15;100.00;100226.59;3057018;19;945;-53
2022/07/12 02:20:58;;;;;;;;;;;;;;;13.09;100.00;100223.50;3057204;19;980;-52
2022/07/12 02:22:00;;;;;;;;;;;;;;;13.09;100.00;100235.06;3056760;19;1105;-52
2022/07/12 02:23:04;;;;;;;;;;;;;;;13.09;100.00;100229.72;3057387;19;975;-52
2022/07/12 02:24:06;;;;;;;;;;;;;;;13.01;100.00;100221.41;3056810;19;1058;-51
2022/07/12 02:25:11;;;;;;;;;;;;;;;13.09;100.00;100235.06;3057375;19;892;-52
2022/07/12 02:26:12;;;;;;;;;;;;;;;13.04;100.00;100226.50;3056410;19;1007;-50
2022/07/12 02:27:17;;;;;;;;;;;;;;;13.04;100.00;100231.88;3057457;19;936;-53
2022/07/12 02:28:19;;;;;;;;;;;;;;;13.03;100.00;100229.34;3056752;19;972;-51
2022/07/12 02:29:23;;;;;;;;;;;;;;;12.97;100.00;100220.78;3057393;19;1615;-50
2022/07/12 02:30:25;;;;;;;;;;;;;;;13.01;100.00;100229.44;3056167;19;1861;-50
2022/07/12 02:31:30;;;;;;;;;;;;;;;12.98;100.00;100229.66;3056692;19;916;-50
2022/07/12 02:32:34;;;;;;;;;;;;;;;12.96;100.00;100231.59;3057005;19;951;-50
2022/07/12 02:33:37;;;;;;;;;;;;;;;12.94;100.00;100230.88;3057145;19;781;-51
2022/07/12 02:34:41;;;;;;;;;;;;;;;12.93;100.00;100227.31;3057027;19;1031;-49
2022/07/12 02:35:43;;;;;;;;;;;;;;;12.92;100.00;100232.81;3056884;19;885;-52
2022/07/12 02:36:48;;;;;;;;;;;;;;;12.91;100.00;100228.44;3056856;19;993;-50
2022/07/12 02:37:50;;;;;;;;;;;;;;;12.91;100.00;100229.28;3057103;19;1328;-52
2022/07/12 02:43:09;;;;;;;;;;;;;;;12.95;100.00;100224.53;3052802;19;1168;-51
2022/07/12 02:44:11;;;;;;;;;;;;;;;12.94;100.00;100229.03;3054576;19;1216;-51
2022/07/12 02:45:15;;;;;;;;;;;;;;;12.94;100.00;100222.81;3054708;19;1048;-50
2022/07/12 02:46:17;;;;;;;;;;;;;;;12.93;100.00;100221.97;3055900;19;1106;-52
2022/07/12 02:47:22;;;;;;;;;;;;;;;12.93;100.00;100221.13;3056630;19;876;-50
2022/07/12 02:48:23;;;;;;;;;;;;;;;12.92;100.00;100222.13;3057028;19;947;-52
2022/07/12 02:49:28;;;;;;;;;;;;;;;12.90;100.00;100208.84;3056753;19;967;-52
2022/07/12 02:50:30;;;;;;;;;;;;;;;12.87;100.00;100202.84;3055858;19;1869;-53
2022/07/12 02:51:34;;;;;;;;;;;;;;;12.87;100.00;100202.84;3056574;19;1166;-50
2022/07/12 02:52:36;;;;;;;;;;;;;;;12.88;100.00;100215.28;3056803;19;766;-51
2022/07/12 02:53:40;;;;;;;;;;;;;;;12.87;100.00;100210.88;3056439;19;958;-52
2022/07/12 02:54:42;;;;;;;;;;;;;;;12.88;100.00;100201.88;3056694;19;968;-52
2022/07/12 02:55:47;;;;;;;;;;;;;;;12.88;100.00;100204.56;3056624;19;1038;-50
2022/07/12 02:56:49;;;;;;;;;;;;;;;12.88;100.00;100205.41;3057004;19;1000;-51
2022/07/12 02:57:53;;;;;;;;;;;;;;;12.91;100.00;100198.97;3056524;19;904;-52
2022/07/12 02:58:55;;;;;;;;;;;;;;;12.90;100.00;100208.84;3056284;19;901;-50
2022/07/12 03:00:00;;;;;;;;;;;;;;;12.89;100.00;100216.97;3056352;19;1199;-50
2022/07/12 03:01:02;;;;;;;;;;;;;;;12.91;100.00;100209.69;3056840;19;879;-50
2022/07/12 03:02:06;;;;;;;;;;;;;;;12.90;100.00;100207.97;3056632;19;936;-51
2022/07/12 03:03:08;;;;;;;;;;;;;;;12.92;100.00;100200.69;3056552;19;1201;-50
2022/07/12 03:04:13;;;;;;;;;;;;;;;12.94;100.00;100206.75;3056548;19;972;-51
2022/07/12 03:05:15;;;;;;;;;;;;;;;12.97;100.00;100198.50;3056435;19;980;-52
2022/07/12 03:06:19;;;;;;;;;;;;;;;12.98;100.00;100200.22;3056803;19;975;-50
2022/07/12 03:07:22;;;;;;;;;;;;;;;12.98;100.00;100194.84;3056464;19;1408;-52
2022/07/12 03:08:26;;;;;;;;;;;;;;;13.02;100.00;100201.69;3056299;19;1827;-51
2022/07/12 03:09:28;;;;;;;;;;;;;;;13.05;100.00;100201.44;3056665;19;939;-50
2022/07/12 03:10:32;;;;;;;;;;;;;;;13.06;100.00;100203.13;3055582;19;1852;-52
2022/07/12 03:11:37;;;;;;;;;;;;;;;13.08;100.00;100200.34;3056429;19;959;-51
2022/07/12 03:12:39;;;;;;;;;;;;;;;13.12;100.00;100194.66;3056334;19;1300;-52
2022/07/12 03:13:43;;;;;;;;;;;;;;;13.11;100.00;100200.97;3056435;19;956;-52
2022/07/12 03:14:45;;;;;;;;;;;;;;;13.15;100.00;100197.13;3056653;19;884;-50
2022/07/12 03:15:49;;;;;;;;;;;;;;;13.19;100.00;100203.94;3056439;19;1732;-50
2022/07/12 03:16:51;;;;;;;;;;;;;;;13.23;100.00;100210.78;3056392;19;941;-51
2022/07/12 03:17:56;;;;;;;;;;;;;;;13.27;100.00;100209.59;3056023;19;980;-52
2022/07/12 03:19:01;;;;;;;;;;;;;;;13.26;100.00;100205.19;3056689;19;884;-52
2022/07/12 03:20:04;;;;;;;;;;;;;;;13.29;100.00;100215.66;3055998;19;907;-51
2022/07/12 03:21:08;;;;;;;;;;;;;;;13.31;100.00;100207.50;3056440;19;988;-51
2022/07/12 03:22:10;;;;;;;;;;;;;;;13.37;100.00;100209.72;3056017;19;995;-52
2022/07/12 03:23:15;;;;;;;;;;;;;;;13.43;100.00;100203.00;3056702;19;971;-50
2022/07/12 03:24:16;;;;;;;;;;;;;;;13.49;100.00;100210.59;3055191;19;877;-50
2022/07/12 03:25:21;;;;;;;;;;;;;;;13.72;100.00;100206.97;3056235;19;1138;-50
2022/07/12 03:26:23;;;;;;;;;;;;;;;13.95;100.00;100216.72;3056146;19;947;-50
2022/07/12 03:27:27;;;;;;;;;;;;;;;13.94;100.00;100212.31;3055795;19;2075;-51
2022/07/12 03:28:32;;;;;;;;;;;;;;;13.90;100.00;100226.94;3055109;19;952;-51
2022/07/12 03:29:34;;;;;;;;;;;;;;;13.85;100.00;100229.16;3056575;19;951;-50
2022/07/12 03:30:38;;;;;;;;;;;;;;;13.84;100.00;100222.09;3055825;19;1861;-49
2022/07/12 03:31:40;;;;;;;;;;;;;;;13.87;100.00;100227.22;3056504;19;940;-52
2022/07/12 03:32:45;;;;;;;;;;;;;;;13.88;100.00;100234.28;3056020;19;988;-53
2022/07/12 03:33:47;;;;;;;;;;;;;;;13.93;100.00;100226.72;3056279;19;916;-52
2022/07/12 03:34:51;;;;;;;;;;;;;;;13.99;100.00;100234.28;3056038;19;1039;-52
2022/07/12 03:35:53;;;;;;;;;;;;;;;14.02;100.00;100236.69;3056204;19;1035;-52
2022/07/12 03:36:57;;;;;;;;;;;;;;;14.06;100.00;100232.81;3056177;19;894;-52
2022/07/12 03:37:59;;;;;;;;;;;;;;;14.07;100.00;100237.19;3056145;19;949;-52
2022/07/12 03:39:04;;;;;;;;;;;;;;;14.11;100.00;100245.00;3056138;19;892;-52
2022/07/12 03:40:06;;;;;;;;;;;;;;;14.15;100.00;100241.94;3055756;19;1696;-50
2022/07/12 03:41:10;;;;;;;;;;;;;;;14.17;100.00;100244.50;3055998;19;955;-50
2022/07/12 03:42:12;;;;;;;;;;;;;;;14.19;100.00;100247.91;3056412;19;968;-50
2022/07/12 03:43:16;;;;;;;;;;;;;;;14.16;100.00;100242.78;3055985;19;1261;-52
2022/07/12 03:44:18;;;;;;;;;;;;;;;14.15;100.00;100249.13;3055318;19;1481;-52
2022/07/12 03:45:23;;;;;;;;;;;;;;;14.13;100.00;100238.53;3056202;19;1628;-51
2022/07/12 03:46:24;;;;;;;;;;;;;;;14.23;100.00;100252.06;3056331;19;872;-51
2022/07/12 03:47:29;;;;;;;;;;;;;;;14.27;100.00;100250.84;3055743;19;957;-52
2022/07/12 03:48:33;;;;;;;;;;;;;;;14.27;100.00;100250.84;3055767;19;965;-52
2022/07/12 03:49:35;;;;;;;;;;;;;;;14.29;100.00;100254.25;3056003;19;917;-50
2022/07/12 03:50:40;;;;;;;;;;;;;;;14.30;100.00;100255.97;3056624;19;1833;-50
2022/07/12 03:51:42;;;;;;;;;;;;;;;14.31;100.00;100255.00;3055842;19;987;-51
2022/07/12 03:52:46;;;;;;;;;;;;;;;14.29;100.00;100254.25;3056308;19;873;-50
2022/07/12 03:53:48;;;;;;;;;;;;;;;14.33;100.00;100255.72;3058593;19;889;-51
2022/07/12 03:54:53;;;;;;;;;;;;;;;14.36;100.00;100250.97;3059380;19;897;-51
2022/07/12 03:55:54;;;;;;;;;;;;;;;14.38;100.00;100250.81;3059174;19;2052;-50
2022/07/12 03:58:25;;;;;;;;;;;;;;;14.44;100.00;100253.06;3057877;19;2780;-52
2022/07/12 03:59:27;;;;;;;;;;;;;;;14.51;100.00;100253.38;3058938;19;980;-51
2022/07/12 04:00:31;;;;;;;;;;;;;;;14.54;100.00;100259.38;3058663;19;1696;-51
2022/07/12 04:01:33;;;;;;;;;;;;;;;14.49;100.00;100264.25;3058312;19;876;-52
2022/07/12 04:02:37;;;;;;;;;;;;;;;14.57;100.00;100269.88;3058535;19;1120;-51
2022/07/12 04:03:39;;;;;;;;;;;;;;;14.62;100.00;100264.97;3059016;19;906;-51
2022/07/12 04:04:44;;;;;;;;;;;;;;;14.67;100.00;100265.44;3059154;19;951;-51
2022/07/12 04:05:48;;;;;;;;;;;;;;;14.72;100.00;100257.88;3058882;19;1156;-51
2022/07/12 04:06:50;;;;;;;;;;;;;;;14.69;100.00;100258.13;3058796;19;940;-51
2022/07/12 04:07:55;;;;;;;;;;;;;;;14.77;100.00;100260.16;3058990;19;877;-50
2022/07/12 04:08:57;;;;;;;;;;;;;;;14.83;100.00;100261.50;3058835;19;964;-52
2022/07/12 04:10:02;;;;;;;;;;;;;;;14.91;100.00;100267.94;3058823;19;1630;-52
2022/07/12 04:11:05;;;;;;;;;;;;;;;14.84;100.00;100265.91;3058577;19;1850;-51
2022/07/12 04:12:10;;;;;;;;;;;;;;;14.91;100.00;100262.56;3058749;19;1061;-51
2022/07/12 04:13:12;;;;;;;;;;;;;;;14.98;100.00;100262.91;3059162;19;1431;-50
2022/07/12 04:14:17;;;;;;;;;;;;;;;15.02;100.00;100261.66;3059875;19;1814;-50
2022/07/12 04:15:19;;;;;;;;;;;;;;;15.10;100.00;100262.72;3058313;19;1666;-51
2022/07/12 04:16:23;;;;;;;;;;;;;;;15.17;100.00;100279.22;3058894;19;881;-51
2022/07/12 04:17:25;;;;;;;;;;;;;;;15.18;100.00;100275.53;3058637;19;900;-51
2022/07/12 04:18:29;;;;;;;;;;;;;;;15.25;100.00;100282.09;3058500;19;1047;-51
2022/07/12 04:19:34;;;;;;;;;;;;;;;15.14;100.00;100276.78;3058791;19;1698;-51
2022/07/12 04:20:39;;;;;;;;;;;;;;;15.10;100.00;100278.00;3058283;19;1522;-51
2022/07/12 04:21:41;;;;;;;;;;;;;;;15.16;100.00;100282.03;3058928;19;996;-52
2022/07/12 04:22:45;;;;;;;;;;;;;;;15.16;100.00;100282.88;3058525;19;1015;-49
2022/07/12 04:23:47;;;;;;;;;;;;;;;15.20;100.00;100278.97;3058794;19;928;-50
2022/07/12 04:24:52;;;;;;;;;;;;;;;15.26;100.00;100274.88;3058902;19;900;-52
2022/07/12 04:25:53;;;;;;;;;;;;;;;15.20;100.00;100278.97;3058695;19;995;-50
2022/07/12 04:26:58;;;;;;;;;;;;;;;15.25;100.00;100282.09;3058693;19;1761;-53
2022/07/12 04:28:00;;;;;;;;;;;;;;;15.33;100.00;100274.25;3058778;19;997;-52
2022/07/12 04:29:04;;;;;;;;;;;;;;;15.38;100.00;100276.53;3058570;19;885;-51
2022/07/12 04:30:09;;;;;;;;;;;;;;;15.50;100.00;100281.72;3059048;19;865;-51
2022/07/12 04:31:11;;;;;;;;;;;;;;;15.59;100.00;100282.78;3057559;19;1866;-50
2022/07/12 04:32:15;;;;;;;;;;;;;;;15.59;100.00;100290.00;3058527;19;1245;-52
2022/07/12 04:33:17;;;;;;;;;;;;;;;15.70;100.00;100292.63;3058396;19;1047;-53
2022/07/12 04:34:22;;;;;;;;;;;;;;;15.82;100.00;100286.19;3058653;19;1012;-51
2022/07/12 04:35:24;;;;;;;;;;;;;;;15.91;100.00;100296.19;3058514;19;903;-51
2022/07/12 04:36:28;;;;;;;;;;;;;;;16.05;100.00;100293.16;3058845;19;1105;-51
2022/07/12 04:37:30;;;;;;;;;;;;;;;16.14;100.00;100300.41;3058503;19;939;-51
2022/07/12 04:38:34;;;;;;;;;;;;;;;16.17;100.00;100316.31;3058949;19;904;-52
2022/07/12 04:39:37;;;;;;;;;;;;;;;16.25;100.00;100315.63;3058443;19;967;-50
2022/07/12 04:40:41;;;;;;;;;;;;;;;16.24;100.00;100319.28;3058504;19;1164;-53
2022/07/12 04:41:43;;;;;;;;;;;;;;;16.25;100.00;100314.75;3058510;19;1111;-51
2022/07/12 04:42:47;;;;;;;;;;;;;;;16.33;100.00;100314.94;3058429;19;1023;-50
2022/07/12 04:43:50;;;;;;;;;;;;;;;16.60;100.00;100335.88;3057659;19;1292;-51
2022/07/12 04:44:56;;;;;;;;;;;;;;;16.84;100.00;100334.56;3058830;19;869;-52
2022/07/12 04:46:05;;;;;;;;;;;;;;;17.05;100.00;100339.00;3058499;19;904;-51
2022/07/12 04:47:10;;;;;;;;;;;;;;;17.35;100.00;100340.75;3058415;19;1055;-50
2022/07/12 04:48:12;;;;;;;;;;;;;;;17.71;100.00;100358.09;3058488;19;1039;-51
2022/07/12 04:49:16;;;;;;;;;;;;;;;17.85;100.00;100369.31;3058613;19;1041;-49
2022/07/12 04:50:19;;;;;;;;;;;;;;;17.78;100.00;100378.13;3058110;19;945;-53
2022/07/12 04:51:23;;;;;;;;;;;;;;;17.78;100.00;100389.75;3058461;19;1266;-53
2022/07/12 04:52:25;;;;;;;;;;;;;;;17.87;100.00;100388.91;3057227;19;1840;-52
2022/07/12 04:53:30;;;;;;;;;;;;;;;17.93;100.00;100399.13;3058447;19;865;-50
2022/07/12 04:54:34;;;;;;;;;;;;;;;17.82;100.00;100398.44;3058287;19;957;-51
2022/07/12 04:55:36;;;;;;;;;;;;;;;17.77;100.00;100406.09;3058608;19;888;-52
2022/07/12 04:56:41;;;;;;;;;;;;;;;17.76;100.00;100407.09;3058344;19;963;-51
2022/07/12 04:57:42;;;;;;;;;;;;;;;17.69;100.00;100401.44;3058435;19;960;-51
2022/07/12 04:58:47;;;;;;;;;;;;;;;17.88;100.00;100397.84;3058367;19;1007;-54
2022/07/12 04:59:49;;;;;;;;;;;;;;;18.15;100.00;100408.78;3058310;19;1035;-53
2022/07/12 05:00:53;;;;;;;;;;;;;;;18.16;100.00;100405.06;3058690;19;1161;-51
2022/07/12 05:01:58;;;;;;;;;;;;;;;18.23;100.00;100400.78;3057143;19;1255;-52
2022/07/12 05:03:00;;;;;;;;;;;;;;;18.30;100.00;100412.72;3059683;19;1269;-52
2022/07/12 05:04:04;;;;;;;;;;;;;;;18.28;100.00;100417.41;3059361;19;1818;-52
2022/07/12 05:05:07;;;;;;;;;;;;;;;18.57;100.00;100408.38;3055781;19;975;-52
2022/07/12 05:06:12;;;;;;;;;;;;;;;18.69;100.00;100418.06;3057210;19;1586;-50
2022/07/12 05:07:14;;;;;;;;;;;;;;;18.68;100.00;100416.34;3057506;19;896;-53
2022/07/12 05:08:19;;;;;;;;;;;;;;;18.93;100.00;100415.66;3058141;19;967;-51
2022/07/12 05:09:21;;;;;;;;;;;;;;;18.96;100.00;100414.50;3058344;19;1056;-52
2022/07/12 05:10:25;;;;;;;;;;;;;;;19.00;100.00;100416.75;3058222;19;971;-51
2022/07/12 05:11:27;;;;;;;;;;;;;;;19.92;100.00;100423.88;3058183;19;819;-52
2022/07/12 05:12:31;;;;;;;;;;;;;;;20.83;100.00;100436.03;3057035;19;1854;-53
2022/07/12 05:13:33;;;;;;;;;;;;;;;21.75;100.00;100449.59;3058338;19;976;-51
2022/07/12 05:14:38;;;;;;;;;;;;;;;22.45;100.00;100463.63;3057938;19;1039;-50
2022/07/12 05:15:39;;;;;;;;;;;;;;;22.39;100.00;100467.00;3057912;19;868;-51
2022/07/12 05:16:44;;;;;;;;;;;;;;;21.86;100.00;100464.72;3058014;19;932;-50
2022/07/12 05:17:46;;;;;;;;;;;;;;;21.30;100.00;100454.59;3058187;19;955;-50
2022/07/12 05:18:53;;;;;;;;;;;;;;;20.97;100.00;100454.44;3057607;19;1771;-52
2022/07/12 05:19:55;;;;;;;;;;;;;;;20.63;100.00;100448.13;3058111;19;996;-53
2022/07/12 05:20:59;;;;;;;;;;;;;;;20.60;100.00;100451.16;3057701;19;968;-51
2022/07/12 05:22:02;;;;;;;;;;;;;;;20.26;100.00;100451.06;3058258;19;873;-51
2022/07/12 05:23:06;;;;;;;;;;;;;;;20.20;100.00;100457.94;3057836;19;1015;-50
2022/07/12 05:24:08;;;;;;;;;;;;;;;20.05;100.00;100457.66;3058083;19;912;-52
2022/07/12 05:25:12;;;;;;;;;;;;;;;19.98;100.00;100450.31;3057824;19;1118;-51
2022/07/12 05:26:17;;;;;;;;;;;;;;;19.95;100.00;100439.78;3057910;19;980;-51
2022/07/12 05:27:19;;;;;;;;;;;;;;;19.89;100.00;100456.66;3057788;19;1310;-50
2022/07/12 05:28:23;;;;;;;;;;;;;;;19.95;100.00;100450.63;3057804;19;924;-50
2022/07/12 05:29:25;;;;;;;;;;;;;;;19.92;100.00;100435.56;3057030;19;920;-53
2022/07/12 05:30:30;;;;;;;;;;;;;;;19.68;100.00;100438.84;3056668;19;822;-52
2022/07/12 05:31:35;;;;;;;;;;;;;;;19.41;100.00;100425.34;3057808;19;976;-52
2022/07/12 05:32:37;;;;;;;;;;;;;;;19.31;100.00;100436.25;3057456;19;1900;-52
2022/07/12 05:33:41;;;;;;;;;;;;;;;19.26;100.00;100433.13;3057545;19;977;-52
2022/07/12 05:34:43;;;;;;;;;;;;;;;19.22;100.00;100433.56;3058222;19;874;-51